createdAt,value
2018-04-22T00:01:45.053Z,55.99
2018-04-22T00:04:11.435Z,56.03
2018-04-22T00:06:37.810Z,56.52
2018-04-22T00:09:05.118Z,56.53
2018-04-22T00:11:31.504Z,56.43
2018-04-22T00:13:57.873Z,56.43
2018-04-22T00:16:24.225Z,56.71
2018-04-22T00:18:50.657Z,57.11
2018-04-22T00:21:17.021Z,57.14
2018-04-22T00:23:43.372Z,56.64
2018-04-22T00:26:09.770Z,56.56
2018-04-22T00:28:36.354Z,56.34
2018-04-22T00:31:02.806Z,55.62
2018-04-22T00:33:29.133Z,55.49
2018-04-22T00:35:55.466Z,55.08
2018-04-22T00:38:21.866Z,55.52
2018-04-22T00:40:48.224Z,56.23
2018-04-22T00:43:14.648Z,55.68
2018-04-22T00:45:41.068Z,55.34
2018-04-22T00:48:07.434Z,54.98
2018-04-22T00:50:33.806Z,54.74
2018-04-22T00:53:00.201Z,55.01
2018-04-22T00:55:26.593Z,55.08
2018-04-22T00:57:52.962Z,55.17
2018-04-22T01:00:19.382Z,54.67
2018-04-22T01:02:45.812Z,55.13
2018-04-22T01:05:12.190Z,55.59
2018-04-22T01:07:38.603Z,56.64
2018-04-22T01:10:04.937Z,56.69
2018-04-22T01:12:31.322Z,56.19
2018-04-22T01:14:57.697Z,56.13
2018-04-22T01:17:24.020Z,55.90
2018-04-22T01:19:50.436Z,56.39
2018-04-22T01:22:16.805Z,56.22
2018-04-22T01:24:43.165Z,56.59
2018-04-22T01:27:09.523Z,56.40
2018-04-22T01:29:35.833Z,56.42
2018-04-22T01:32:02.298Z,56.34
2018-04-22T01:34:28.694Z,55.96
2018-04-22T01:36:55.090Z,55.64
2018-04-22T01:39:21.469Z,55.82
2018-04-22T01:41:47.930Z,56.40
2018-04-22T01:44:14.292Z,55.95
2018-04-22T01:46:40.679Z,56.00
2018-04-22T01:49:07.101Z,55.95
2018-04-22T01:51:33.437Z,56.15
2018-04-22T01:53:59.892Z,56.02
2018-04-22T01:56:26.222Z,56.02
2018-04-22T01:58:52.594Z,56.04
2018-04-22T02:01:18.976Z,56.35
2018-04-22T02:03:45.377Z,56.87
2018-04-22T02:06:11.805Z,56.96
2018-04-22T02:08:38.257Z,56.88
2018-04-22T02:11:04.656Z,56.29
2018-04-22T02:13:31.032Z,56.43
2018-04-22T02:15:57.415Z,55.86
2018-04-22T02:18:23.920Z,56.29
2018-04-22T02:20:50.353Z,56.69
2018-04-22T02:23:16.740Z,57.47
2018-04-22T02:25:43.115Z,57.36
2018-04-22T02:28:09.601Z,57.79
2018-04-22T02:30:35.934Z,57.53
2018-04-22T02:33:02.297Z,56.71
2018-04-22T02:35:28.614Z,57.33
2018-04-22T02:37:55.010Z,57.87
2018-04-22T02:40:21.382Z,57.55
2018-04-22T02:42:47.714Z,57.11
2018-04-22T02:45:14.038Z,57.80
2018-04-22T02:47:40.426Z,58.39
2018-04-22T02:50:06.812Z,58.72
2018-04-22T02:52:33.188Z,58.27
2018-04-22T02:54:59.801Z,58.58
2018-04-22T02:57:26.172Z,58.33
2018-04-22T02:59:52.534Z,57.80
2018-04-22T03:02:18.926Z,57.98
2018-04-22T03:04:45.293Z,58.50
2018-04-22T03:07:11.660Z,58.90
2018-04-22T03:09:38.081Z,58.80
2018-04-22T03:12:04.418Z,58.54
2018-04-22T03:14:30.815Z,58.02
2018-04-22T03:16:57.289Z,57.98
2018-04-22T03:19:23.642Z,58.06
2018-04-22T03:21:49.969Z,58.07
2018-04-22T03:24:16.313Z,57.71
2018-04-22T03:26:42.697Z,57.74
2018-04-22T03:29:09.081Z,57.28
2018-04-22T03:31:35.493Z,57.53
2018-04-22T03:34:02.002Z,57.95
2018-04-22T03:36:28.362Z,58.41
2018-04-22T03:38:54.709Z,58.15
2018-04-22T03:41:21.065Z,58.44
2018-04-22T03:43:47.428Z,58.86
2018-04-22T03:46:13.853Z,58.90
2018-04-22T03:48:40.239Z,58.70
2018-04-22T03:51:06.617Z,59.15
2018-04-22T03:53:33.014Z,59.18
2018-04-22T03:55:59.365Z,59.00
2018-04-22T03:58:25.741Z,59.12
2018-04-22T04:00:52.095Z,59.28
2018-04-22T04:03:18.457Z,58.71
2018-04-22T04:05:44.829Z,58.40
2018-04-22T04:08:11.198Z,58.60
2018-04-22T04:10:37.617Z,58.29
2018-04-22T04:13:04.024Z,58.24
2018-04-22T04:15:30.393Z,58.16
2018-04-22T04:31:32.395Z,57.66
2018-04-22T04:33:58.831Z,58.06
2018-04-22T04:36:25.178Z,57.75
2018-04-22T04:38:51.538Z,57.70
2018-04-22T04:41:17.918Z,57.72
2018-04-22T04:43:44.261Z,57.91
2018-04-22T04:46:10.613Z,57.94
2018-04-22T04:48:36.984Z,57.55
2018-04-22T04:51:03.409Z,57.45
2018-04-22T04:53:29.911Z,57.32
2018-04-22T04:55:56.322Z,57.30
2018-04-22T04:58:22.775Z,57.26
2018-04-22T05:00:49.146Z,56.66
2018-04-22T05:03:15.527Z,56.46
2018-04-22T05:05:41.837Z,56.57
2018-04-22T05:08:08.184Z,56.76
2018-04-22T05:10:34.517Z,56.45
2018-04-22T05:13:00.909Z,55.91
2018-04-22T05:15:27.323Z,55.57
2018-04-22T05:17:53.730Z,55.54
2018-04-22T05:20:21.842Z,55.49
2018-04-22T05:22:48.268Z,56.06
2018-04-22T05:25:14.722Z,54.73
2018-04-22T05:27:41.308Z,54.76
2018-04-22T05:30:07.670Z,54.82
2018-04-22T05:32:34.044Z,54.79
2018-04-22T05:35:00.771Z,54.65
2018-04-22T05:37:27.117Z,54.93
2018-04-22T05:39:53.462Z,54.75
2018-04-22T05:42:20.152Z,54.83
2018-04-22T05:44:46.549Z,55.24
2018-04-22T05:47:13.080Z,54.56
2018-04-22T05:49:39.444Z,53.56
2018-04-22T05:52:05.826Z,53.25
2018-04-22T05:54:32.194Z,53.20
2018-04-22T05:56:58.540Z,52.99
2018-04-22T05:59:25.042Z,52.98
2018-04-22T06:01:51.480Z,52.95
2018-04-22T06:04:17.832Z,53.42
2018-04-22T06:06:44.270Z,52.77
2018-04-22T06:09:10.691Z,52.79
2018-04-22T06:11:37.114Z,52.74
2018-04-22T06:14:03.501Z,52.62
2018-04-22T06:16:30.384Z,53.04
2018-04-22T06:18:56.757Z,53.99
2018-04-22T06:21:23.086Z,54.06
2018-04-22T06:23:49.650Z,52.46
2018-04-22T06:26:16.034Z,51.34
2018-04-22T06:28:42.422Z,54.99
2018-04-22T06:31:08.775Z,51.33
2018-04-22T06:33:35.164Z,51.81
2018-04-22T06:36:01.545Z,49.04
2018-04-22T06:38:27.981Z,49.08
2018-04-22T06:40:54.289Z,49.07
2018-04-22T06:43:20.664Z,50.80
2018-04-22T06:45:47.038Z,53.35
2018-04-22T06:48:13.437Z,49.04
2018-04-22T06:50:39.940Z,49.54
2018-04-22T06:53:06.372Z,49.43
2018-04-22T06:55:32.738Z,49.23
2018-04-22T06:57:59.214Z,49.69
2018-04-22T07:00:25.607Z,49.40
2018-04-22T07:02:52.109Z,51.48
2018-04-22T07:05:18.505Z,50.52
2018-04-22T07:07:44.841Z,52.35
2018-04-22T07:10:11.204Z,48.94
2018-04-22T07:12:37.586Z,46.44
2018-04-22T07:15:03.952Z,44.46
2018-04-22T07:17:30.296Z,43.34
2018-04-22T07:19:56.792Z,43.78
2018-04-22T07:22:23.142Z,44.66
2018-04-22T07:24:49.545Z,48.25
2018-04-22T07:27:16.194Z,48.46
2018-04-22T07:29:42.566Z,45.08
2018-04-22T07:32:09.017Z,45.14
2018-04-22T07:34:35.419Z,45.09
2018-04-22T07:37:01.787Z,48.13
2018-04-22T07:39:28.146Z,46.32
2018-04-22T07:41:54.504Z,43.65
2018-04-22T07:44:20.855Z,43.63
2018-04-22T07:46:47.204Z,46.79
2018-04-22T07:49:13.577Z,46.94
2018-04-22T07:51:39.924Z,41.69
2018-04-22T07:54:06.389Z,40.51
2018-04-22T07:56:32.772Z,40.39
2018-04-22T07:58:59.102Z,41.09
2018-04-22T08:01:25.584Z,41.53
2018-04-22T08:03:51.951Z,45.20
2018-04-22T08:06:18.294Z,44.88
2018-04-22T08:08:44.653Z,42.35
2018-04-22T08:11:11.015Z,42.53
2018-04-22T08:13:37.444Z,45.69
2018-04-22T08:16:03.810Z,43.65
2018-04-22T08:18:30.172Z,43.12
2018-04-22T08:20:56.523Z,44.56
2018-04-22T08:23:22.865Z,41.06
2018-04-22T08:25:49.287Z,42.10
2018-04-22T08:28:15.669Z,43.78
2018-04-22T08:30:42.233Z,44.51
2018-04-22T08:33:08.919Z,40.16
2018-04-22T08:35:35.273Z,38.76
2018-04-22T08:38:01.705Z,42.99
2018-04-22T08:40:28.110Z,38.67
2018-04-22T08:42:54.478Z,39.23
2018-04-22T08:45:20.873Z,38.10
2018-04-22T08:47:47.234Z,37.95
2018-04-22T08:50:13.634Z,37.45
2018-04-22T08:52:40.037Z,40.09
2018-04-22T08:55:06.387Z,38.51
2018-04-22T08:57:32.782Z,40.16
2018-04-22T08:59:59.183Z,43.93
2018-04-22T09:02:25.533Z,37.18
2018-04-22T09:04:52.033Z,37.15
2018-04-22T09:07:18.475Z,36.40
2018-04-22T09:09:44.987Z,37.76
2018-04-22T09:12:11.448Z,38.64
2018-04-22T09:14:37.853Z,37.30
2018-04-22T09:17:04.226Z,36.50
2018-04-22T09:19:30.578Z,35.22
2018-04-22T09:21:57.017Z,40.99
2018-04-22T09:24:23.358Z,34.53
2018-04-22T09:26:49.750Z,33.89
2018-04-22T09:29:16.079Z,35.56
2018-04-22T09:31:42.477Z,37.65
2018-04-22T09:34:08.927Z,36.91
2018-04-22T09:36:35.286Z,34.19
2018-04-22T09:39:01.673Z,33.55
2018-04-22T09:41:28.186Z,31.09
2018-04-22T09:43:54.538Z,36.65
2018-04-22T09:46:20.964Z,36.02
2018-04-22T09:48:47.296Z,37.02
2018-04-22T09:51:13.677Z,38.87
2018-04-22T09:53:40.053Z,29.02
2018-04-22T09:56:06.417Z,28.95
2018-04-22T09:58:32.902Z,29.07
2018-04-22T10:01:00.281Z,36.28
2018-04-22T10:03:26.717Z,39.05
2018-04-22T10:05:53.106Z,30.88
2018-04-22T10:08:19.481Z,32.23
2018-04-22T10:10:45.839Z,30.22
2018-04-22T10:13:12.149Z,31.11
2018-04-22T10:15:38.550Z,39.52
2018-04-22T10:18:04.929Z,39.33
2018-04-22T10:20:31.414Z,36.00
2018-04-22T10:22:57.901Z,37.41
2018-04-22T10:25:24.271Z,37.79
2018-04-22T10:27:50.645Z,28.25
2018-04-22T10:30:17.103Z,29.45
2018-04-22T10:32:43.445Z,28.75
2018-04-22T10:35:09.843Z,29.49
2018-04-22T10:37:36.254Z,29.58
2018-04-22T10:40:02.721Z,28.64
2018-04-22T10:42:29.103Z,41.23
2018-04-22T10:44:55.495Z,42.22
2018-04-22T10:47:21.862Z,42.80
2018-04-22T10:49:48.349Z,42.70
2018-04-22T10:52:14.872Z,31.75
2018-04-22T10:54:41.310Z,31.19
2018-04-22T10:57:07.726Z,32.70
2018-04-22T10:59:34.095Z,35.53
2018-04-22T11:02:00.505Z,37.12
2018-04-22T11:04:26.865Z,31.97
2018-04-22T11:06:53.249Z,30.76
2018-04-22T11:09:19.642Z,39.22
2018-04-22T11:11:46.281Z,33.52
2018-04-22T11:14:12.695Z,32.49
2018-04-22T11:16:39.053Z,34.77
2018-04-22T11:19:05.411Z,34.17
2018-04-22T11:21:31.843Z,32.02
2018-04-22T11:23:58.241Z,28.17
2018-04-22T11:26:24.629Z,29.30
2018-04-22T11:28:51.026Z,36.40
2018-04-22T11:31:17.406Z,38.49
2018-04-22T11:33:43.770Z,26.81
2018-04-22T11:36:10.171Z,29.84
2018-04-22T11:38:36.534Z,39.29
2018-04-22T11:41:02.917Z,25.79
2018-04-22T11:43:29.361Z,37.53
2018-04-22T11:45:55.726Z,30.73
2018-04-22T11:48:22.105Z,29.50
2018-04-22T11:50:48.504Z,39.11
2018-04-22T11:53:14.867Z,28.06
2018-04-22T11:55:41.249Z,37.39
2018-04-22T11:58:07.627Z,37.55
2018-04-22T12:00:34.111Z,40.93
2018-04-22T12:03:00.470Z,28.29
2018-04-22T12:05:26.877Z,38.82
2018-04-22T12:07:53.253Z,29.75
2018-04-22T12:10:19.742Z,22.80
2018-04-22T12:12:46.149Z,36.55
2018-04-22T12:15:12.510Z,28.46
2018-04-22T12:17:38.878Z,34.86
2018-04-22T12:20:05.267Z,23.90
2018-04-22T12:22:31.621Z,38.64
2018-04-22T12:24:58.036Z,23.27
2018-04-22T12:27:24.394Z,31.39
2018-04-22T12:29:50.762Z,22.54
2018-04-22T12:32:17.205Z,32.92
2018-04-22T12:34:43.569Z,37.45
2018-04-22T12:37:09.941Z,24.17
2018-04-22T12:39:36.325Z,23.65
2018-04-22T12:42:02.728Z,36.79
2018-04-22T12:44:29.109Z,25.01
2018-04-22T12:46:55.473Z,31.67
2018-04-22T12:49:21.821Z,30.17
2018-04-22T12:51:48.291Z,37.23
2018-04-22T12:54:14.669Z,29.54
2018-04-22T12:56:41.017Z,37.25
2018-04-22T12:59:07.373Z,33.22
2018-04-22T13:01:33.735Z,27.52
2018-04-22T13:04:00.191Z,28.45
2018-04-22T13:06:26.542Z,33.34
2018-04-22T13:08:52.969Z,37.50
2018-04-22T13:11:19.456Z,37.20
2018-04-22T13:13:46.218Z,30.54
2018-04-22T13:16:12.614Z,30.88
2018-04-22T13:18:39.014Z,31.47
2018-04-22T13:21:05.398Z,26.68
2018-04-22T13:23:32.001Z,30.72
2018-04-22T13:25:58.346Z,34.75
2018-04-22T13:28:24.705Z,37.98
2018-04-22T13:30:51.371Z,35.02
2018-04-22T13:33:17.758Z,28.81
2018-04-22T13:35:44.173Z,31.03
2018-04-22T13:38:10.585Z,25.74
2018-04-22T13:40:36.962Z,34.15
2018-04-22T13:43:03.351Z,28.89
2018-04-22T13:45:29.758Z,25.25
2018-04-22T13:47:56.146Z,33.70
2018-04-22T13:50:22.513Z,31.33
2018-04-22T13:52:48.919Z,35.82
2018-04-22T13:55:15.331Z,30.78
2018-04-22T13:57:41.704Z,26.87
2018-04-22T14:00:08.077Z,24.93
2018-04-22T14:02:34.563Z,24.49
2018-04-22T14:05:01.090Z,30.16
2018-04-22T14:07:27.470Z,37.56
2018-04-22T14:09:53.979Z,34.20
2018-04-22T14:12:20.332Z,34.53
2018-04-22T14:14:46.790Z,26.10
2018-04-22T14:17:13.152Z,27.16
2018-04-22T14:19:39.517Z,26.86
2018-04-22T14:22:05.897Z,26.59
2018-04-22T14:24:32.286Z,37.29
2018-04-22T14:26:58.630Z,32.98
2018-04-22T14:29:25.050Z,32.38
2018-04-22T14:31:51.603Z,24.44
2018-04-22T14:34:17.950Z,26.35
2018-04-22T14:36:44.373Z,23.35
2018-04-22T14:39:10.797Z,39.34
2018-04-22T14:41:37.230Z,22.65
2018-04-22T14:44:15.845Z,30.71
2018-04-22T14:46:42.228Z,29.28
2018-04-22T14:49:08.763Z,25.83
2018-04-22T14:51:35.309Z,25.41
2018-04-22T14:54:01.662Z,29.87
2018-04-22T14:56:28.375Z,38.19
2018-04-22T14:58:54.745Z,26.52
2018-04-22T15:01:21.141Z,26.01
2018-04-22T15:03:47.502Z,31.15
2018-04-22T15:06:13.866Z,35.53
2018-04-22T15:08:40.339Z,32.09
2018-04-22T15:11:06.710Z,29.11
2018-04-22T15:13:33.125Z,27.76
2018-04-22T15:15:59.498Z,35.77
2018-04-22T15:18:25.972Z,29.78
2018-04-22T15:20:52.349Z,22.39
2018-04-22T15:23:18.755Z,30.21
2018-04-22T15:25:45.246Z,33.04
2018-04-22T15:28:11.601Z,25.66
2018-04-22T15:30:38.004Z,26.64
2018-04-22T15:33:04.381Z,34.79
2018-04-22T15:35:30.738Z,36.56
2018-04-22T15:37:57.114Z,25.26
2018-04-22T15:40:23.491Z,31.35
2018-04-22T15:42:49.898Z,21.79
2018-04-22T15:45:16.331Z,25.03
2018-04-22T15:47:42.685Z,35.19
2018-04-22T15:50:09.037Z,32.95
2018-04-22T15:52:35.407Z,36.84
2018-04-22T15:55:01.791Z,29.31
2018-04-22T15:57:28.498Z,29.84
2018-04-22T15:59:55.034Z,33.61
2018-04-22T16:02:21.364Z,32.12
2018-04-22T16:04:47.765Z,35.26
2018-04-22T16:07:14.232Z,32.06
2018-04-22T16:09:40.600Z,30.73
2018-04-22T16:12:06.929Z,31.42
2018-04-22T16:14:33.285Z,35.10
2018-04-22T16:16:59.626Z,32.53
2018-04-22T16:19:26.046Z,31.54
2018-04-22T16:21:52.420Z,32.12
2018-04-22T16:24:18.769Z,33.16
2018-04-22T16:26:45.194Z,32.88
2018-04-22T16:29:11.626Z,42.36
2018-04-22T16:31:38.333Z,35.21
2018-04-22T16:34:04.700Z,36.06
2018-04-22T16:36:31.203Z,40.14
2018-04-22T16:38:57.572Z,41.38
2018-04-22T16:41:24.023Z,35.12
2018-04-22T16:43:50.330Z,37.90
2018-04-22T16:46:16.686Z,37.15
2018-04-22T16:48:43.087Z,42.59
2018-04-22T16:51:09.465Z,34.86
2018-04-22T16:53:35.901Z,34.97
2018-04-22T16:56:02.269Z,35.02
2018-04-22T16:58:28.686Z,37.70
2018-04-22T17:00:55.050Z,35.06
2018-04-22T17:03:21.417Z,37.99
2018-04-22T17:05:47.824Z,33.85
2018-04-22T17:08:14.214Z,34.70
2018-04-22T17:10:40.597Z,33.85
2018-04-22T17:13:06.969Z,34.01
2018-04-22T17:15:33.296Z,34.56
2018-04-22T17:17:59.658Z,34.15
2018-04-22T17:20:26.011Z,33.60
2018-04-22T17:22:52.378Z,35.74
2018-04-22T17:25:18.785Z,34.11
2018-04-22T17:27:45.201Z,34.13
2018-04-22T17:30:11.659Z,34.22
2018-04-22T17:32:38.045Z,33.87
2018-04-22T17:35:04.443Z,34.31
2018-04-22T17:37:30.802Z,36.46
2018-04-22T17:39:57.181Z,34.34
2018-04-22T17:42:23.546Z,34.83
2018-04-22T17:44:49.873Z,34.45
2018-04-22T17:47:16.362Z,34.47
2018-04-22T17:49:42.758Z,36.00
2018-04-22T17:52:09.168Z,35.46
2018-04-22T17:54:35.737Z,41.42
2018-04-22T17:57:02.461Z,35.18
2018-04-22T17:59:28.822Z,36.25
2018-04-22T18:01:55.222Z,35.29
2018-04-22T18:04:21.577Z,41.20
2018-04-22T18:06:47.964Z,35.22
2018-04-22T18:09:14.341Z,36.28
2018-04-22T18:11:40.725Z,35.48
2018-04-22T18:14:07.096Z,36.01
2018-04-22T18:16:33.563Z,35.73
2018-04-22T18:18:59.996Z,35.99
2018-04-22T18:21:26.460Z,35.96
2018-04-22T18:23:52.877Z,35.88
2018-04-22T18:26:19.300Z,36.39
2018-04-22T18:28:45.661Z,36.40
2018-04-22T18:31:12.164Z,36.88
2018-04-22T18:33:38.522Z,36.78
2018-04-22T18:36:04.909Z,36.73
2018-04-22T18:38:31.315Z,37.01
2018-04-22T18:40:57.674Z,37.39
2018-04-22T18:43:24.102Z,37.80
2018-04-22T18:45:50.489Z,38.21
2018-04-22T18:48:16.873Z,38.20
2018-04-22T18:50:43.242Z,38.66
2018-04-22T18:53:09.602Z,38.36
2018-04-22T18:55:35.949Z,38.38
2018-04-22T18:58:02.343Z,38.79
2018-04-22T19:00:28.741Z,39.08
2018-04-22T19:02:55.113Z,40.64
2018-04-22T19:05:21.693Z,39.26
2018-04-22T19:07:48.031Z,39.27
2018-04-22T19:10:14.519Z,39.44
2018-04-22T19:12:40.890Z,40.35
2018-04-22T19:15:07.265Z,39.92
2018-04-22T19:17:33.646Z,40.05
2018-04-22T19:20:00.003Z,40.12
2018-04-22T19:22:26.361Z,40.37
2018-04-22T19:24:52.754Z,40.62
2018-04-22T19:27:19.212Z,40.92
2018-04-22T19:29:45.774Z,40.89
2018-04-22T19:32:12.231Z,41.02
2018-04-22T19:34:38.694Z,41.19
2018-04-22T19:37:05.066Z,41.16
2018-04-22T19:39:31.459Z,41.47
2018-04-22T19:41:57.829Z,42.26
2018-04-22T19:44:24.253Z,44.21
2018-04-22T19:46:50.737Z,43.45
2018-04-22T19:49:17.155Z,44.65
2018-04-22T19:51:44.381Z,42.83
2018-04-22T19:54:11.464Z,42.98
2018-04-22T19:56:38.644Z,43.07
2018-04-22T19:59:05.372Z,43.46
2018-04-22T20:01:31.838Z,43.54
2018-04-22T20:03:58.223Z,43.82
2018-04-22T20:06:24.606Z,44.02
2018-04-22T20:08:50.997Z,44.13
2018-04-22T20:11:17.446Z,44.37
2018-04-22T20:13:43.810Z,44.57
2018-04-22T20:16:10.243Z,44.60
2018-04-22T20:18:36.649Z,44.63
2018-04-22T20:21:03.027Z,44.86
2018-04-22T20:23:29.519Z,44.76
2018-04-22T20:25:56.184Z,44.81
2018-04-22T20:28:22.578Z,44.71
2018-04-22T20:30:48.954Z,44.64
2018-04-22T20:33:15.322Z,44.90
2018-04-22T20:35:41.794Z,44.73
2018-04-22T20:38:08.213Z,44.68
2018-04-22T20:40:34.622Z,44.65
2018-04-22T20:43:00.981Z,44.44
2018-04-22T20:45:27.406Z,44.60
2018-04-22T20:47:53.891Z,44.70
2018-04-22T20:50:20.277Z,44.63
2018-04-22T20:52:46.761Z,44.61
2018-04-22T20:55:13.174Z,50.69
2018-04-22T20:57:39.610Z,44.87
2018-04-22T21:00:06.093Z,44.62
2018-04-22T21:02:32.607Z,45.11
2018-04-22T21:04:59.050Z,44.81
2018-04-22T21:07:25.525Z,44.56
2018-04-22T21:09:51.979Z,44.59
2018-04-22T21:12:18.358Z,44.82
2018-04-22T21:14:44.717Z,45.10
2018-04-22T21:17:11.098Z,45.09
2018-04-22T21:19:37.448Z,45.10
2018-04-22T21:22:03.814Z,45.16
2018-04-22T21:24:30.189Z,45.24
2018-04-22T21:26:56.534Z,45.39
2018-04-22T21:29:22.924Z,45.47
2018-04-22T21:31:49.302Z,45.41
2018-04-22T21:34:15.703Z,45.51
2018-04-22T21:36:42.057Z,46.11
2018-04-22T21:39:08.401Z,46.56
2018-04-22T21:41:34.762Z,46.73
2018-04-22T21:44:01.179Z,46.91
2018-04-22T21:46:27.568Z,46.97
2018-04-22T21:48:53.965Z,47.24
2018-04-22T21:51:20.325Z,47.16
2018-04-22T21:53:46.705Z,47.45
2018-04-22T21:56:13.093Z,47.75
2018-04-22T21:58:39.465Z,47.97
2018-04-22T22:01:05.842Z,48.21
2018-04-22T22:03:32.453Z,48.43
2018-04-22T22:05:58.979Z,48.85
2018-04-22T22:08:25.717Z,48.93
2018-04-22T22:10:52.113Z,49.12
2018-04-22T22:13:18.453Z,49.09
2018-04-22T22:15:44.950Z,49.28
2018-04-22T22:18:11.280Z,49.30
2018-04-22T22:20:37.733Z,49.17
2018-04-22T22:23:04.090Z,49.07
2018-04-22T22:25:30.468Z,49.39
2018-04-22T22:27:56.841Z,49.18
2018-04-22T22:30:23.241Z,48.96
2018-04-22T22:32:49.614Z,49.00
2018-04-22T22:35:15.981Z,49.08
2018-04-22T22:37:42.461Z,49.22
2018-04-22T22:40:08.824Z,49.59
2018-04-22T22:42:35.324Z,49.76
2018-04-22T22:45:01.707Z,49.81
2018-04-22T22:47:28.089Z,49.78
2018-04-22T22:49:54.426Z,49.83
2018-04-22T22:52:20.777Z,49.99
2018-04-22T22:54:47.129Z,50.32
2018-04-22T22:57:13.547Z,50.96
2018-04-22T22:59:39.933Z,51.17
2018-04-22T23:02:06.341Z,51.14
2018-04-22T23:04:32.685Z,51.41
2018-04-22T23:06:59.161Z,51.57
2018-04-22T23:09:25.709Z,51.77
2018-04-22T23:11:52.116Z,51.63
2018-04-22T23:14:18.549Z,51.55
2018-04-22T23:16:44.917Z,51.71
2018-04-22T23:19:11.312Z,51.52
2018-04-22T23:21:38.022Z,51.66
2018-04-22T23:24:04.455Z,51.92
2018-04-22T23:26:30.880Z,52.07
2018-04-22T23:28:57.272Z,52.07
2018-04-22T23:31:23.687Z,52.05
2018-04-22T23:33:50.076Z,52.39
2018-04-22T23:36:16.422Z,52.96
2018-04-22T23:38:42.781Z,52.85
2018-04-22T23:41:09.141Z,52.83
2018-04-22T23:43:35.544Z,52.69
2018-04-22T23:46:01.916Z,52.60
2018-04-22T23:48:28.292Z,52.65
2018-04-22T23:50:54.613Z,52.50
2018-04-22T23:53:20.944Z,52.54
2018-04-22T23:55:47.342Z,52.49
2018-04-22T23:58:13.670Z,52.74
